Time;durP1;ratioP1;P1;durP2;ratioP2;P2;SDS_P1;SDS_P2;PMS_P1;PMS_P2;Temp;Humidity;BMP_temperature;BMP_pressure;BME280_temperature;BME280_humidity;BME280_pressure;Samples;Min_cycle;Max_cycle;Signal;HPM_P1;HPM_P2
2023/12/02 00:01:58;;;;;;;6.07;4.47;;;;;;;;;;10495206;28;20479;-66
2023/12/02 00:06:59;;;;;;;5.30;3.90;;;;;;;;;;10493333;28;20483;-66
2023/12/02 00:11:59;;;;;;;6.82;4.28;;;;;;;;;;10493619;28;20082;-66
2023/12/02 00:17:00;;;;;;;8.25;4.43;;;;;;;;;;10493570;28;20032;-66
2023/12/02 00:22:00;;;;;;;7.32;4.15;;;;;;;;;;10489700;28;20028;-65
2023/12/02 00:27:01;;;;;;;5.75;4.55;;;;;;;;;;10489372;28;20172;-66
2023/12/02 00:32:02;;;;;;;6.03;4.18;;;;;;;;;;10495012;28;20017;-65
2023/12/02 00:37:03;;;;;;;6.15;4.45;;;;;;;;;;10495199;28;20259;-63
2023/12/02 00:42:04;;;;;;;5.45;4.32;;;;;;;;;;10500365;28;20028;-64
2023/12/02 00:47:05;;;;;;;6.78;4.45;;;;;;;;;;10492900;28;20128;-65
2023/12/02 00:52:05;;;;;;;6.95;4.40;;;;;;;;;;10492025;28;20040;-65
2023/12/02 00:57:06;;;;;;;8.07;4.82;;;;;;;;;;10489935;28;20109;-66
2023/12/02 01:02:06;;;;;;;5.00;4.32;;;;;;;;;;10490041;28;20029;-66
2023/12/02 01:07:07;;;;;;;7.25;4.40;;;;;;;;;;10491212;28;20430;-65
2023/12/02 01:12:08;;;;;;;10.98;4.80;;;;;;;;;;10491062;28;20055;-65
2023/12/02 01:17:09;;;;;;;8.73;4.47;;;;;;;;;;10490301;28;20048;-67
2023/12/02 01:22:09;;;;;;;9.82;4.63;;;;;;;;;;10491048;28;20025;-68
2023/12/02 01:27:10;;;;;;;7.22;4.18;;;;;;;;;;10489804;28;20395;-66
2023/12/02 01:32:10;;;;;;;8.30;4.10;;;;;;;;;;10489415;28;20047;-67
2023/12/02 01:37:11;;;;;;;6.93;4.53;;;;;;;;;;10489726;28;20028;-68
2023/12/02 01:42:11;;;;;;;8.77;4.40;;;;;;;;;;10489589;28;20043;-67
2023/12/02 01:47:12;;;;;;;8.88;3.72;;;;;;;;;;10485999;28;20079;-68
2023/12/02 01:52:13;;;;;;;6.13;4.50;;;;;;;;;;10483727;28;20043;-66
2023/12/02 01:57:14;;;;;;;8.00;4.60;;;;;;;;;;10467389;28;20132;-66
2023/12/02 02:02:14;;;;;;;4.85;4.15;;;;;;;;;;10481907;28;20395;-65
2023/12/02 02:07:17;;;;;;;6.43;3.97;;;;;;;;;;10470171;28;20071;-65
2023/12/02 02:12:18;;;;;;;9.00;3.97;;;;;;;;;;10471947;28;20064;-65
2023/12/02 02:17:18;;;;;;;5.03;3.95;;;;;;;;;;10482465;28;20037;-64
2023/12/02 02:22:19;;;;;;;9.65;4.10;;;;;;;;;;10480924;28;20047;-63
2023/12/02 02:27:19;;;;;;;3.92;3.40;;;;;;;;;;10476299;28;20020;-63
2023/12/02 02:32:20;;;;;;;9.68;4.22;;;;;;;;;;10488127;28;20098;-63
2023/12/02 02:37:21;;;;;;;5.25;4.28;;;;;;;;;;10487962;28;20032;-63
2023/12/02 02:42:21;;;;;;;5.05;3.80;;;;;;;;;;10486789;28;20025;-63
2023/12/02 02:47:22;;;;;;;6.10;4.10;;;;;;;;;;10462939;28;20017;-63
2023/12/02 02:52:22;;;;;;;4.00;3.60;;;;;;;;;;10474908;28;20032;-63
2023/12/02 02:57:23;;;;;;;4.95;3.63;;;;;;;;;;10488364;28;20029;-63
2023/12/02 03:02:24;;;;;;;4.97;3.72;;;;;;;;;;10476188;28;20031;-63
2023/12/02 03:07:24;;;;;;;6.40;3.92;;;;;;;;;;10487126;28;20452;-63
2023/12/02 03:12:26;;;;;;;3.60;3.30;;;;;;;;;;10486482;28;20046;-62
2023/12/02 03:17:26;;;;;;;5.88;3.97;;;;;;;;;;10474458;28;20039;-66
2023/12/02 03:22:27;;;;;;;4.70;3.55;;;;;;;;;;10474161;28;20480;-66
2023/12/02 03:27:27;;;;;;;5.70;3.78;;;;;;;;;;10485571;28;20475;-66
2023/12/02 03:32:28;;;;;;;4.05;3.63;;;;;;;;;;10487131;28;20483;-66
2023/12/02 03:37:29;;;;;;;4.15;3.42;;;;;;;;;;10473917;28;20063;-66
2023/12/02 03:42:29;;;;;;;11.18;3.90;;;;;;;;;;10486383;28;20028;-66
2023/12/02 03:47:31;;;;;;;5.00;3.60;;;;;;;;;;10486849;28;20122;-66
2023/12/02 03:52:32;;;;;;;6.18;3.80;;;;;;;;;;10487244;28;20569;-66
2023/12/02 03:57:32;;;;;;;4.30;3.38;;;;;;;;;;10493780;28;20073;-66
2023/12/02 04:02:33;;;;;;;4.03;3.28;;;;;;;;;;10485859;28;20032;-65
2023/12/02 04:07:34;;;;;;;3.78;3.38;;;;;;;;;;10482466;28;20218;-64
2023/12/02 04:12:35;;;;;;;8.05;3.25;;;;;;;;;;10491408;28;20275;-64
2023/12/02 04:17:35;;;;;;;5.72;3.15;;;;;;;;;;10493949;28;20244;-65
2023/12/02 04:22:37;;;;;;;5.43;3.85;;;;;;;;;;10492775;28;20028;-65
2023/12/02 04:27:37;;;;;;;3.30;2.97;;;;;;;;;;10492338;28;20041;-65
2023/12/02 04:32:38;;;;;;;5.30;3.28;;;;;;;;;;10492866;28;20039;-65
2023/12/02 04:37:39;;;;;;;6.57;3.30;;;;;;;;;;10485036;28;20036;-65
2023/12/02 04:42:41;;;;;;;6.43;3.35;;;;;;;;;;10493213;28;20101;-65
2023/12/02 04:47:41;;;;;;;4.82;3.58;;;;;;;;;;10492373;28;20032;-66
2023/12/02 04:52:43;;;;;;;5.25;3.15;;;;;;;;;;10487000;28;20440;-66
2023/12/02 04:57:45;;;;;;;3.83;3.28;;;;;;;;;;10470727;28;20028;-66
2023/12/02 05:02:46;;;;;;;7.05;3.33;;;;;;;;;;10474997;28;20035;-66
2023/12/02 05:07:46;;;;;;;4.78;3.33;;;;;;;;;;10478031;28;20036;-66
2023/12/02 05:12:47;;;;;;;3.75;3.03;;;;;;;;;;10490301;28;20483;-64
2023/12/02 05:17:48;;;;;;;3.35;2.90;;;;;;;;;;10491209;28;20511;-64
2023/12/02 05:22:48;;;;;;;7.68;3.20;;;;;;;;;;10488280;28;20472;-64
2023/12/02 05:27:49;;;;;;;4.85;3.33;;;;;;;;;;10480203;28;20080;-64
2023/12/02 05:32:51;;;;;;;3.45;2.92;;;;;;;;;;10474940;28;20329;-65
2023/12/02 05:37:52;;;;;;;3.63;2.65;;;;;;;;;;10477431;28;20101;-65
2023/12/02 05:42:53;;;;;;;3.17;2.83;;;;;;;;;;10490122;28;20057;-65
2023/12/02 05:47:53;;;;;;;5.53;3.22;;;;;;;;;;10489745;28;20028;-65
2023/12/02 05:52:54;;;;;;;3.17;2.78;;;;;;;;;;10474032;28;20067;-65
2023/12/02 05:57:54;;;;;;;7.00;2.72;;;;;;;;;;10483463;28;20032;-65
2023/12/02 06:02:55;;;;;;;2.88;2.60;;;;;;;;;;10482393;28;20089;-65
2023/12/02 06:07:55;;;;;;;4.90;2.50;;;;;;;;;;10488313;28;20391;-65
2023/12/02 06:12:56;;;;;;;3.67;2.72;;;;;;;;;;10474325;28;20025;-65
2023/12/02 06:17:57;;;;;;;6.78;3.20;;;;;;;;;;10463223;28;20029;-67
2023/12/02 06:22:57;;;;;;;5.05;3.10;;;;;;;;;;10488846;28;20040;-65
2023/12/02 06:27:58;;;;;;;3.70;2.50;;;;;;;;;;10488786;28;20025;-65
2023/12/02 06:32:58;;;;;;;3.75;2.60;;;;;;;;;;10488842;28;20024;-65
2023/12/02 06:37:59;;;;;;;6.93;2.88;;;;;;;;;;10475315;28;20038;-66
2023/12/02 06:42:59;;;;;;;2.72;2.30;;;;;;;;;;10475148;28;20032;-64
2023/12/02 06:48:01;;;;;;;3.63;2.60;;;;;;;;;;10475016;28;20028;-64
2023/12/02 06:53:01;;;;;;;6.85;2.75;;;;;;;;;;10487961;28;20044;-65
2023/12/02 06:58:03;;;;;;;5.30;3.17;;;;;;;;;;10471489;28;20033;-66
2023/12/02 07:03:03;;;;;;;3.67;2.55;;;;;;;;;;10481480;28;20037;-64
2023/12/02 07:08:04;;;;;;;2.88;2.25;;;;;;;;;;10474967;28;20056;-64
2023/12/02 07:13:05;;;;;;;3.10;2.80;;;;;;;;;;10470188;28;20024;-64
2023/12/02 07:18:05;;;;;;;2.90;2.60;;;;;;;;;;10487916;28;20028;-64
2023/12/02 07:23:06;;;;;;;3.22;2.67;;;;;;;;;;10487514;28;20365;-65
2023/12/02 07:28:06;;;;;;;3.28;2.70;;;;;;;;;;10476487;28;20037;-64
2023/12/02 07:33:07;;;;;;;2.88;2.45;;;;;;;;;;10494043;28;20039;-64
2023/12/02 07:38:08;;;;;;;5.25;2.63;;;;;;;;;;10490056;28;20035;-64
2023/12/02 07:43:09;;;;;;;3.13;2.47;;;;;;;;;;10480878;28;20028;-65
2023/12/02 07:48:10;;;;;;;3.92;2.60;;;;;;;;;;10494658;28;20032;-65
2023/12/02 07:53:11;;;;;;;2.35;2.15;;;;;;;;;;10493659;28;20044;-65
2023/12/02 07:58:11;;;;;;;2.95;2.50;;;;;;;;;;10489546;28;20036;-63
2023/12/02 08:03:12;;;;;;;2.53;2.28;;;;;;;;;;10488725;28;20036;-66
2023/12/02 08:08:12;;;;;;;3.72;2.90;;;;;;;;;;10478255;28;20040;-66
2023/12/02 08:13:13;;;;;;;2.67;2.28;;;;;;;;;;10484178;28;20115;-63
2023/12/02 08:18:15;;;;;;;3.47;2.60;;;;;;;;;;10491493;28;20036;-63
2023/12/02 08:23:16;;;;;;;2.35;2.15;;;;;;;;;;10459044;28;20075;-63
2023/12/02 08:28:16;;;;;;;3.00;2.50;;;;;;;;;;10463460;28;20021;-63
2023/12/02 08:33:17;;;;;;;3.60;2.25;;;;;;;;;;10462953;28;20484;-63
2023/12/02 08:38:17;;;;;;;4.82;2.67;;;;;;;;;;10465120;28;20468;-65
2023/12/02 08:43:18;;;;;;;2.60;2.35;;;;;;;;;;10471935;28;20045;-66
2023/12/02 08:48:18;;;;;;;6.28;2.72;;;;;;;;;;10467356;28;20431;-65
2023/12/02 08:53:19;;;;;;;3.20;2.35;;;;;;;;;;10469145;28;20049;-66
2023/12/02 08:58:20;;;;;;;3.75;2.80;;;;;;;;;;10486433;28;20033;-65
2023/12/02 09:03:20;;;;;;;2.70;2.30;;;;;;;;;;10486639;28;20075;-65
2023/12/02 09:08:21;;;;;;;3.00;2.50;;;;;;;;;;10493921;28;20032;-63
2023/12/02 09:13:40;;;;;;;2.25;1.92;;;;;;;;;;10508127;28;20052;-63
2023/12/02 09:18:41;;;;;;;5.95;2.08;;;;;;;;;;10480102;28;20051;-64
2023/12/02 09:23:44;;;;;;;3.63;2.60;;;;;;;;;;10490537;28;20504;-65
2023/12/02 09:28:44;;;;;;;3.08;2.35;;;;;;;;;;10459586;28;20020;-66
2023/12/02 09:33:45;;;;;;;3.60;2.20;;;;;;;;;;10490384;28;20024;-67
2023/12/02 09:38:45;;;;;;;2.63;2.40;;;;;;;;;;10477465;28;20032;-70
2023/12/02 09:43:58;;;;;;;4.80;2.58;;;;;;;;;;10483795;28;20349;-68
2023/12/02 09:49:35;;;;;;;3.28;2.50;;;;;;;;;;10489353;28;20301;-67
2023/12/02 09:55:09;;;;;;;2.50;2.03;;;;;;;;;;10488362;28;20118;-67
2023/12/02 10:00:35;;;;;;;4.00;2.40;;;;;;;;;;10464599;28;20028;-61
2023/12/02 10:05:52;;;;;;;6.15;3.40;;;;;;;;;;10489999;28;20028;-62
2023/12/02 10:11:44;;;;;;;29.98;5.50;;;;;;;;;;10463583;28;20037;-63
2023/12/02 10:16:50;;;;;;;23.10;6.28;;;;;;;;;;10476809;28;20123;-63
2023/12/02 10:21:56;;;;;;;21.90;6.13;;;;;;;;;;10489634;28;20094;-63
2023/12/02 10:27:06;;;;;;;14.65;5.38;;;;;;;;;;10496988;28;20021;-63
2023/12/02 10:32:17;;;;;;;21.63;5.85;;;;;;;;;;10488300;28;20025;-62
2023/12/02 10:37:24;;;;;;;21.63;5.93;;;;;;;;;;10488952;28;20120;-63
2023/12/02 10:42:48;;;;;;;17.63;5.97;;;;;;;;;;10489156;28;20039;-63
2023/12/02 10:47:52;;;;;;;17.23;5.85;;;;;;;;;;10468773;28;20044;-62
2023/12/02 10:53:04;;;;;;;13.73;5.35;;;;;;;;;;10483563;28;20426;-62
2023/12/02 10:58:06;;;;;;;13.77;6.47;;;;;;;;;;10484846;28;20039;-63
2023/12/02 11:03:25;;;;;;;15.23;5.90;;;;;;;;;;10481240;28;20040;-62
2023/12/02 11:08:57;;;;;;;19.15;5.72;;;;;;;;;;10493972;28;20514;-62
2023/12/02 11:14:01;;;;;;;19.23;5.97;;;;;;;;;;10493784;28;20055;-62
2023/12/02 11:19:28;;;;;;;13.52;6.07;;;;;;;;;;10492191;28;20041;-63
2023/12/02 11:25:08;;;;;;;13.27;5.70;;;;;;;;;;10493526;28;20037;-63
2023/12/02 11:30:46;;;;;;;11.65;5.57;;;;;;;;;;10485739;28;20475;-63
2023/12/02 11:36:07;;;;;;;12.18;5.43;;;;;;;;;;10456726;28;20154;-62
2023/12/02 11:41:28;;;;;;;13.80;5.13;;;;;;;;;;10488806;28;20372;-63
2023/12/02 11:46:40;;;;;;;16.02;5.65;;;;;;;;;;10449603;28;20028;-63
2023/12/02 11:52:06;;;;;;;17.15;5.65;;;;;;;;;;10477875;28;20048;-63
2023/12/02 11:58:01;;;;;;;12.60;4.82;;;;;;;;;;10477819;28;20034;-63
2023/12/02 12:03:35;;;;;;;13.60;5.10;;;;;;;;;;10493876;28;20028;-64
2023/12/02 12:09:26;;;;;;;16.05;4.78;;;;;;;;;;10454328;28;20493;-63
2023/12/02 12:14:29;;;;;;;14.00;4.97;;;;;;;;;;10488241;28;20033;-63
2023/12/02 12:19:29;;;;;;;9.27;4.32;;;;;;;;;;10490409;28;20062;-64
2023/12/02 12:24:30;;;;;;;13.10;4.80;;;;;;;;;;10483751;28;20513;-64
2023/12/02 12:29:31;;;;;;;10.15;5.10;;;;;;;;;;10491366;28;20551;-63
2023/12/02 12:34:31;;;;;;;16.50;4.57;;;;;;;;;;10491262;28;20435;-63
2023/12/02 12:39:32;;;;;;;16.25;4.80;;;;;;;;;;10488944;28;20511;-64
2023/12/02 12:44:33;;;;;;;12.73;5.53;;;;;;;;;;10489486;28;20025;-64
2023/12/02 12:49:43;;;;;;;10.65;4.82;;;;;;;;;;10490600;28;20055;-64
2023/12/02 12:54:57;;;;;;;10.50;4.20;;;;;;;;;;10490588;28;20039;-63
2023/12/02 12:59:59;;;;;;;6.85;3.97;;;;;;;;;;10490038;28;20077;-63
2023/12/02 13:05:09;;;;;;;10.10;4.30;;;;;;;;;;10483422;28;20497;-63
2023/12/02 13:10:13;;;;;;;19.98;4.82;;;;;;;;;;10476690;28;20028;-63
2023/12/02 13:15:20;;;;;;;9.15;3.88;;;;;;;;;;10477174;28;20032;-63
2023/12/02 13:20:23;;;;;;;9.80;4.20;;;;;;;;;;10485414;28;20052;-63
2023/12/02 13:25:29;;;;;;;9.52;4.13;;;;;;;;;;10476400;28;20025;-63
2023/12/02 13:30:34;;;;;;;9.20;4.28;;;;;;;;;;10488418;28;20082;-63
2023/12/02 13:35:39;;;;;;;9.32;4.18;;;;;;;;;;10472323;28;20067;-63
2023/12/02 13:41:12;;;;;;;6.40;3.42;;;;;;;;;;10478626;28;20412;-63
2023/12/02 13:46:17;;;;;;;7.05;3.47;;;;;;;;;;10466282;28;20051;-63
2023/12/02 13:51:32;;;;;;;8.25;3.85;;;;;;;;;;10482095;28;20053;-63
2023/12/02 13:57:02;;;;;;;5.28;3.60;;;;;;;;;;10468005;28;20036;-63
2023/12/02 14:02:23;;;;;;;8.60;3.53;;;;;;;;;;10456279;28;20057;-63
2023/12/02 14:07:27;;;;;;;9.70;3.25;;;;;;;;;;10478450;28;20086;-63
2023/12/02 14:12:38;;;;;;;4.07;2.53;;;;;;;;;;10485148;28;20032;-63
2023/12/02 14:18:26;;;;;;;5.30;3.00;;;;;;;;;;10471764;28;20036;-63
2023/12/02 14:23:51;;;;;;;6.85;2.95;;;;;;;;;;10272783;28;20050;-63
2023/12/02 14:29:43;;;;;;;5.45;3.17;;;;;;;;;;10272695;28;20294;-63
2023/12/02 14:35:13;;;;;;;6.85;3.13;;;;;;;;;;10264453;28;20042;-63
2023/12/02 14:40:26;;;;;;;4.85;2.60;;;;;;;;;;10275539;28;20047;-63
2023/12/02 14:45:32;;;;;;;5.68;2.58;;;;;;;;;;10259774;28;20046;-63
2023/12/02 14:50:33;;;;;;;5.18;2.65;;;;;;;;;;10294877;28;20137;-63
2023/12/02 14:55:34;;;;;;;5.60;2.58;;;;;;;;;;10443830;28;20037;-63
2023/12/02 15:00:40;;;;;;;5.43;2.30;;;;;;;;;;10430012;28;20116;-64
2023/12/02 15:05:41;;;;;;;5.93;2.28;;;;;;;;;;10451333;28;20045;-64
2023/12/02 15:10:44;;;;;;;7.63;2.45;;;;;;;;;;10433627;28;20028;-63
2023/12/02 15:15:47;;;;;;;10.32;2.63;;;;;;;;;;10440925;28;20116;-64
2023/12/02 15:21:02;;;;;;;4.60;2.63;;;;;;;;;;10445434;28;20123;-64
2023/12/02 15:26:03;;;;;;;3.42;2.20;;;;;;;;;;10439439;28;20044;-64
2023/12/02 15:31:13;;;;;;;13.60;2.45;;;;;;;;;;10434545;28;20051;-64
2023/12/02 15:36:13;;;;;;;5.35;1.83;;;;;;;;;;10438588;28;20481;-64
2023/12/02 15:41:15;;;;;;;2.53;1.80;;;;;;;;;;10441731;28;20040;-64
2023/12/02 15:46:15;;;;;;;4.70;2.35;;;;;;;;;;10444121;28;20116;-64
2023/12/02 15:51:19;;;;;;;5.28;2.08;;;;;;;;;;10459629;28;20411;-64
2023/12/02 15:56:21;;;;;;;3.80;2.40;;;;;;;;;;10494333;28;20032;-64
2023/12/02 16:01:21;;;;;;;5.05;2.25;;;;;;;;;;10479272;28;20111;-64
2023/12/02 16:06:23;;;;;;;4.55;2.50;;;;;;;;;;10493051;28;20020;-64
2023/12/02 16:11:24;;;;;;;2.25;1.92;;;;;;;;;;10492332;28;20128;-64
2023/12/02 16:16:24;;;;;;;2.25;1.90;;;;;;;;;;10480733;28;20092;-64
2023/12/02 16:21:25;;;;;;;3.53;2.30;;;;;;;;;;10483645;28;20025;-64
2023/12/02 16:26:26;;;;;;;6.60;2.30;;;;;;;;;;10492689;28;20116;-64
2023/12/02 16:31:27;;;;;;;2.22;1.92;;;;;;;;;;10478941;28;20041;-64
2023/12/02 16:36:28;;;;;;;3.33;2.10;;;;;;;;;;10486038;28;20041;-64
2023/12/02 16:41:28;;;;;;;5.00;2.00;;;;;;;;;;10476122;28;20387;-64
2023/12/02 16:46:34;;;;;;;4.07;2.38;;;;;;;;;;10472227;28;20053;-64
2023/12/02 16:51:40;;;;;;;2.95;1.85;;;;;;;;;;10456730;28;20052;-63
2023/12/02 16:56:42;;;;;;;7.40;2.50;;;;;;;;;;10493617;28;20450;-64
2023/12/02 17:01:42;;;;;;;6.03;1.92;;;;;;;;;;10481098;28;20562;-64
2023/12/02 17:06:43;;;;;;;3.30;2.13;;;;;;;;;;10488502;28;20033;-64
2023/12/02 17:11:43;;;;;;;9.77;2.30;;;;;;;;;;10480511;28;20035;-64
2023/12/02 17:16:51;;;;;;;8.43;1.90;;;;;;;;;;10470450;28;20044;-65
2023/12/02 17:21:53;;;;;;;10.25;2.10;;;;;;;;;;10461716;28;20440;-64
2023/12/02 17:26:54;;;;;;;3.85;1.92;;;;;;;;;;10490741;28;20380;-64
2023/12/02 17:31:56;;;;;;;3.45;1.92;;;;;;;;;;10489380;28;20029;-64
2023/12/02 17:36:57;;;;;;;3.53;1.88;;;;;;;;;;10489889;28;20062;-64
2023/12/02 17:41:57;;;;;;;2.88;1.98;;;;;;;;;;10499093;28;20082;-64
2023/12/02 17:46:58;;;;;;;3.78;2.15;;;;;;;;;;10490018;28;20094;-64
2023/12/02 17:52:01;;;;;;;3.58;1.70;;;;;;;;;;10475254;28;20086;-64
2023/12/02 17:57:01;;;;;;;2.03;1.58;;;;;;;;;;10488063;28;20033;-64
2023/12/02 18:02:03;;;;;;;4.22;1.48;;;;;;;;;;10479067;28;20414;-64
2023/12/02 18:07:04;;;;;;;5.47;1.83;;;;;;;;;;10485449;28;20025;-64
2023/12/02 18:12:05;;;;;;;6.75;1.95;;;;;;;;;;10486945;28;20023;-64
2023/12/02 18:17:05;;;;;;;4.97;1.85;;;;;;;;;;10487992;28;20029;-64
2023/12/02 18:22:14;;;;;;;4.55;1.70;;;;;;;;;;10488798;28;20236;-64
2023/12/02 18:27:15;;;;;;;2.75;2.10;;;;;;;;;;10486884;28;20101;-64
2023/12/02 18:32:16;;;;;;;4.97;1.70;;;;;;;;;;10419410;28;20037;-66
2023/12/02 18:37:16;;;;;;;3.40;1.80;;;;;;;;;;10470635;28;20460;-66
2023/12/02 18:42:17;;;;;;;2.30;1.70;;;;;;;;;;10455219;28;20412;-66
2023/12/02 18:47:17;;;;;;;3.60;2.13;;;;;;;;;;10443798;28;20271;-67
2023/12/02 18:52:18;;;;;;;11.70;2.45;;;;;;;;;;10479718;28;20397;-66
2023/12/02 18:57:19;;;;;;;10.00;1.90;;;;;;;;;;10484376;28;20048;-66
2023/12/02 19:02:19;;;;;;;17.02;3.13;;;;;;;;;;10469911;28;20040;-65
2023/12/02 19:07:20;;;;;;;23.92;3.30;;;;;;;;;;10484249;28;20029;-66
2023/12/02 19:12:21;;;;;;;11.43;3.10;;;;;;;;;;10485889;28;20068;-66
2023/12/02 19:17:22;;;;;;;10.57;2.53;;;;;;;;;;10486622;28;20028;-66
2023/12/02 19:22:24;;;;;;;9.52;2.80;;;;;;;;;;10486369;28;20029;-66
2023/12/02 19:27:25;;;;;;;12.00;2.90;;;;;;;;;;10478652;28;20770;-66
2023/12/02 19:32:26;;;;;;;14.95;2.97;;;;;;;;;;10477497;28;20025;-66
2023/12/02 19:37:26;;;;;;;8.35;2.70;;;;;;;;;;10474208;28;20078;-66
2023/12/02 19:42:28;;;;;;;8.55;2.22;;;;;;;;;;10486961;28;20032;-66
2023/12/02 19:47:28;;;;;;;5.72;2.47;;;;;;;;;;10491725;28;20048;-66
2023/12/02 19:52:41;;;;;;;4.68;2.05;;;;;;;;;;10492838;28;20056;-65
2023/12/02 19:57:51;;;;;;;10.88;2.63;;;;;;;;;;10493404;28;20036;-65
2023/12/02 20:02:51;;;;;;;8.68;2.28;;;;;;;;;;10493618;28;20527;-66
2023/12/02 20:07:53;;;;;;;6.03;2.10;;;;;;;;;;10501947;28;20028;-66
2023/12/02 20:12:54;;;;;;;6.93;1.90;;;;;;;;;;10470171;28;20038;-65
2023/12/02 20:17:54;;;;;;;5.43;1.92;;;;;;;;;;10494499;28;20036;-65
2023/12/02 20:22:55;;;;;;;3.45;2.28;;;;;;;;;;10490507;28;20028;-65
2023/12/02 20:27:55;;;;;;;7.47;2.25;;;;;;;;;;10491078;28;20086;-65
2023/12/02 20:32:56;;;;;;;5.45;1.90;;;;;;;;;;10492015;28;20020;-65
2023/12/02 20:37:57;;;;;;;3.38;1.80;;;;;;;;;;10479017;28;20031;-65
2023/12/02 20:42:57;;;;;;;2.67;1.60;;;;;;;;;;10498257;28;20353;-66
2023/12/02 20:47:58;;;;;;;3.75;1.80;;;;;;;;;;10486733;28;20422;-65
2023/12/02 20:52:59;;;;;;;6.25;2.20;;;;;;;;;;10487389;28;20055;-67
2023/12/02 20:57:59;;;;;;;3.47;1.80;;;;;;;;;;10490145;28;20032;-67
2023/12/02 21:03:00;;;;;;;3.60;1.85;;;;;;;;;;10481624;28;20471;-68
2023/12/02 21:08:01;;;;;;;3.80;1.92;;;;;;;;;;10491302;28;20494;-69
2023/12/02 21:13:01;;;;;;;3.17;1.95;;;;;;;;;;10486656;28;20028;-66
2023/12/02 21:18:03;;;;;;;4.18;2.10;;;;;;;;;;10488463;28;20040;-68
2023/12/02 21:23:04;;;;;;;3.50;2.10;;;;;;;;;;10476802;28;20097;-67
2023/12/02 21:28:05;;;;;;;9.90;2.15;;;;;;;;;;10485318;28;20421;-66
2023/12/02 21:33:12;;;;;;;7.30;2.70;;;;;;;;;;10482492;28;20105;-64
2023/12/02 21:38:39;;;;;;;9.98;2.83;;;;;;;;;;10485487;28;20104;-64
2023/12/02 21:43:44;;;;;;;8.30;2.70;;;;;;;;;;10484649;28;20021;-66
2023/12/02 21:48:44;;;;;;;4.90;2.17;;;;;;;;;;10486728;28;20032;-66
2023/12/02 21:53:45;;;;;;;7.82;2.15;;;;;;;;;;10478328;28;20045;-66
2023/12/02 21:59:06;;;;;;;5.03;2.10;;;;;;;;;;10481789;28;20036;-66
2023/12/02 22:04:12;;;;;;;12.07;2.55;;;;;;;;;;10472239;28;20047;-66
2023/12/02 22:09:26;;;;;;;4.53;2.20;;;;;;;;;;10489255;28;20035;-66
2023/12/02 22:14:30;;;;;;;5.40;2.33;;;;;;;;;;10476443;28;20369;-66
2023/12/02 22:19:34;;;;;;;6.22;2.53;;;;;;;;;;10486334;28;20463;-66
2023/12/02 22:24:38;;;;;;;4.65;1.80;;;;;;;;;;10469279;28;20606;-66
2023/12/02 22:29:43;;;;;;;6.95;2.55;;;;;;;;;;10488163;28;20055;-66
2023/12/02 22:34:44;;;;;;;6.70;2.47;;;;;;;;;;10487937;28;20033;-66
2023/12/02 22:39:45;;;;;;;4.45;1.90;;;;;;;;;;10487918;28;20051;-66
2023/12/02 22:44:45;;;;;;;2.40;2.00;;;;;;;;;;10489042;28;20593;-66
2023/12/02 22:49:46;;;;;;;3.13;2.30;;;;;;;;;;10488319;28;20024;-66
2023/12/02 22:54:47;;;;;;;4.25;2.28;;;;;;;;;;10488633;28;20052;-66
2023/12/02 22:59:48;;;;;;;3.50;2.30;;;;;;;;;;10501078;28;20032;-66
2023/12/02 23:04:49;;;;;;;2.67;2.00;;;;;;;;;;10492783;28;20031;-66
2023/12/02 23:09:56;;;;;;;5.03;2.03;;;;;;;;;;10493635;28;20812;-66
2023/12/02 23:14:59;;;;;;;3.63;2.30;;;;;;;;;;10488725;28;20547;-66
2023/12/02 23:20:03;;;;;;;3.13;2.08;;;;;;;;;;10500711;28;20139;-66
2023/12/02 23:25:15;;;;;;;3.10;2.10;;;;;;;;;;10499991;28;20120;-66
2023/12/02 23:30:20;;;;;;;6.90;2.30;;;;;;;;;;10487727;28;20056;-66
2023/12/02 23:35:23;;;;;;;3.95;2.15;;;;;;;;;;10499506;28;20044;-66
2023/12/02 23:40:29;;;;;;;4.05;2.40;;;;;;;;;;10455449;28;20059;-66
2023/12/02 23:45:29;;;;;;;3.67;2.10;;;;;;;;;;10476077;28;20064;-66
2023/12/02 23:50:30;;;;;;;3.03;2.00;;;;;;;;;;10480686;28;20053;-66
2023/12/02 23:55:30;;;;;;;6.90;2.20;;;;;;;;;;10474463;28;20032;-66
